sensor_id;sensor_type;location;lat;lon;timestamp;temperature;humidity
10512;DHT22;5304;48.604;2.096;2024-02-28T04:59:43;0.70;99.90
10512;DHT22;5304;48.604;2.096;2024-02-28T05:02:29;0.70;99.90
10512;DHT22;5304;48.604;2.096;2024-02-28T05:05:13;0.70;99.90
10512;DHT22;5304;48.604;2.096;2024-02-28T05:07:58;0.80;99.90
10512;DHT22;5304;48.604;2.096;2024-02-28T05:10:42;0.70;99.90
10512;DHT22;5304;48.604;2.096;2024-02-28T05:13:28;0.60;99.90
10512;DHT22;5304;48.604;2.096;2024-02-28T05:16:14;0.60;99.90
10512;DHT22;5304;48.604;2.096;2024-02-28T05:18:59;0.70;99.90
10512;DHT22;5304;48.604;2.096;2024-02-28T05:21:43;0.70;99.90
10512;DHT22;5304;48.604;2.096;2024-02-28T05:24:29;0.60;99.90
10512;DHT22;5304;48.604;2.096;2024-02-28T05:27:13;0.60;99.90
10512;DHT22;5304;48.604;2.096;2024-02-28T05:29:57;0.50;99.90
10512;DHT22;5304;48.604;2.096;2024-02-28T05:32:42;0.50;99.90
10512;DHT22;5304;48.604;2.096;2024-02-28T05:35:26;0.70;99.90
10512;DHT22;5304;48.604;2.096;2024-02-28T05:38:11;0.80;99.90
10512;DHT22;5304;48.604;2.096;2024-02-28T05:40:55;0.70;99.90
10512;DHT22;5304;48.604;2.096;2024-02-28T05:43:40;0.60;99.90
10512;DHT22;5304;48.604;2.096;2024-02-28T05:46:25;0.60;99.90
10512;DHT22;5304;48.604;2.096;2024-02-28T05:49:09;0.50;99.90
10512;DHT22;5304;48.604;2.096;2024-02-28T05:51:53;0.50;99.90
10512;DHT22;5304;48.604;2.096;2024-02-28T05:54:37;0.50;99.90
10512;DHT22;5304;48.604;2.096;2024-02-28T05:57:22;0.50;99.90
10512;DHT22;5304;48.604;2.096;2024-02-28T06:00:08;0.50;99.90
10512;DHT22;5304;48.604;2.096;2024-02-28T06:02:55;0.50;99.90
10512;DHT22;5304;48.604;2.096;2024-02-28T06:05:40;0.50;99.90
10512;DHT22;5304;48.604;2.096;2024-02-28T06:08:24;0.60;99.90
10512;DHT22;5304;48.604;2.096;2024-02-28T06:11:10;0.60;99.90
10512;DHT22;5304;48.604;2.096;2024-02-28T06:13:55;0.50;99.90
10512;DHT22;5304;48.604;2.096;2024-02-28T06:16:39;0.60;99.90
10512;DHT22;5304;48.604;2.096;2024-02-28T06:19:24;0.80;99.90
10512;DHT22;5304;48.604;2.096;2024-02-28T06:22:10;0.90;99.90
10512;DHT22;5304;48.604;2.096;2024-02-28T06:24:54;1.00;99.90
10512;DHT22;5304;48.604;2.096;2024-02-28T06:27:39;0.90;99.90
10512;DHT22;5304;48.604;2.096;2024-02-28T06:30:23;0.70;99.90
10512;DHT22;5304;48.604;2.096;2024-02-28T06:33:07;0.70;99.90
10512;DHT22;5304;48.604;2.096;2024-02-28T06:35:53;0.80;99.90
10512;DHT22;5304;48.604;2.096;2024-02-28T06:38:37;0.70;99.90
10512;DHT22;5304;48.604;2.096;2024-02-28T06:41:21;0.60;99.90
10512;DHT22;5304;48.604;2.096;2024-02-28T06:44:05;0.50;99.90
10512;DHT22;5304;48.604;2.096;2024-02-28T06:46:51;0.40;99.90
10512;DHT22;5304;48.604;2.096;2024-02-28T06:49:36;0.40;99.90
10512;DHT22;5304;48.604;2.096;2024-02-28T06:52:20;0.30;99.90
10512;DHT22;5304;48.604;2.096;2024-02-28T06:55:04;0.40;99.90
10512;DHT22;5304;48.604;2.096;2024-02-28T06:57:54;0.70;99.90
10512;DHT22;5304;48.604;2.096;2024-02-28T07:00:38;0.80;99.90
10512;DHT22;5304;48.604;2.096;2024-02-28T07:03:22;0.70;99.90
10512;DHT22;5304;48.604;2.096;2024-02-28T07:06:06;0.60;99.90
10512;DHT22;5304;48.604;2.096;2024-02-28T07:08:51;0.50;99.90
10512;DHT22;5304;48.604;2.096;2024-02-28T07:11:35;0.50;99.90
10512;DHT22;5304;48.604;2.096;2024-02-28T07:14:19;0.50;99.90
10512;DHT22;5304;48.604;2.096;2024-02-28T07:17:04;0.60;99.90
10512;DHT22;5304;48.604;2.096;2024-02-28T07:19:48;0.80;99.90
10512;DHT22;5304;48.604;2.096;2024-02-28T07:22:32;1.10;99.90
10512;DHT22;5304;48.604;2.096;2024-02-28T07:25:17;1.20;99.90
10512;DHT22;5304;48.604;2.096;2024-02-28T07:28:01;1.20;99.90
10512;DHT22;5304;48.604;2.096;2024-02-28T07:30:46;1.00;99.90
10512;DHT22;5304;48.604;2.096;2024-02-28T07:33:32;1.20;99.90
10512;DHT22;5304;48.604;2.096;2024-02-28T07:36:16;1.30;99.90
10512;DHT22;5304;48.604;2.096;2024-02-28T07:39:00;1.10;99.90
10512;DHT22;5304;48.604;2.096;2024-02-28T07:41:45;1.10;99.90
10512;DHT22;5304;48.604;2.096;2024-02-28T07:44:29;1.10;99.90
10512;DHT22;5304;48.604;2.096;2024-02-28T07:47:14;1.30;99.90
10512;DHT22;5304;48.604;2.096;2024-02-28T07:49:59;1.40;99.90
10512;DHT22;5304;48.604;2.096;2024-02-28T07:52:43;1.50;99.90
10512;DHT22;5304;48.604;2.096;2024-02-28T07:55:28;1.50;99.90
10512;DHT22;5304;48.604;2.096;2024-02-28T07:58:14;1.50;99.90
10512;DHT22;5304;48.604;2.096;2024-02-28T08:01:00;1.60;99.90
10512;DHT22;5304;48.604;2.096;2024-02-28T08:03:44;1.70;99.90
10512;DHT22;5304;48.604;2.096;2024-02-28T08:06:30;1.80;99.90
10512;DHT22;5304;48.604;2.096;2024-02-28T08:09:14;1.90;99.90
10512;DHT22;5304;48.604;2.096;2024-02-28T08:12:00;1.90;99.90
10512;DHT22;5304;48.604;2.096;2024-02-28T08:14:44;2.00;99.90
10512;DHT22;5304;48.604;2.096;2024-02-28T08:17:29;2.00;99.90
10512;DHT22;5304;48.604;2.096;2024-02-28T08:20:14;2.30;99.90
10512;DHT22;5304;48.604;2.096;2024-02-28T08:22:59;2.50;99.90
10512;DHT22;5304;48.604;2.096;2024-02-28T08:25:44;2.70;99.90
10512;DHT22;5304;48.604;2.096;2024-02-28T08:28:28;3.20;99.90
10512;DHT22;5304;48.604;2.096;2024-02-28T08:31:12;3.50;99.90
10512;DHT22;5304;48.604;2.096;2024-02-28T08:33:56;3.80;99.90
10512;DHT22;5304;48.604;2.096;2024-02-28T08:36:40;4.50;99.90
10512;DHT22;5304;48.604;2.096;2024-02-28T08:39:24;5.60;99.90
10512;DHT22;5304;48.604;2.096;2024-02-28T08:42:10;6.50;99.90
10512;DHT22;5304;48.604;2.096;2024-02-28T08:44:54;7.40;99.90
10512;DHT22;5304;48.604;2.096;2024-02-28T08:47:43;8.60;99.90
10512;DHT22;5304;48.604;2.096;2024-02-28T08:50:28;9.20;99.90
10512;DHT22;5304;48.604;2.096;2024-02-28T08:53:13;9.80;99.90
10512;DHT22;5304;48.604;2.096;2024-02-28T08:55:57;10.30;99.90
10512;DHT22;5304;48.604;2.096;2024-02-28T08:58:41;10.90;99.90
10512;DHT22;5304;48.604;2.096;2024-02-28T09:01:27;11.80;99.90
10512;DHT22;5304;48.604;2.096;2024-02-28T09:04:11;12.20;99.90
10512;DHT22;5304;48.604;2.096;2024-02-28T09:06:56;12.40;99.90
10512;DHT22;5304;48.604;2.096;2024-02-28T09:09:42;12.70;99.90
10512;DHT22;5304;48.604;2.096;2024-02-28T09:12:27;12.80;99.90
10512;DHT22;5304;48.604;2.096;2024-02-28T09:15:11;13.50;99.90
10512;DHT22;5304;48.604;2.096;2024-02-28T09:17:55;13.30;99.90
10512;DHT22;5304;48.604;2.096;2024-02-28T09:20:40;12.40;99.90
10512;DHT22;5304;48.604;2.096;2024-02-28T09:23:24;11.60;99.90
10512;DHT22;5304;48.604;2.096;2024-02-28T09:26:08;10.60;99.90
10512;DHT22;5304;48.604;2.096;2024-02-28T09:28:54;10.10;99.90
10512;DHT22;5304;48.604;2.096;2024-02-28T09:31:38;9.60;99.90
10512;DHT22;5304;48.604;2.096;2024-02-28T09:34:22;9.50;99.90
10512;DHT22;5304;48.604;2.096;2024-02-28T09:37:07;9.90;99.90
10512;DHT22;5304;48.604;2.096;2024-02-28T09:39:51;10.50;99.90
10512;DHT22;5304;48.604;2.096;2024-02-28T09:42:36;11.40;99.90
10512;DHT22;5304;48.604;2.096;2024-02-28T09:45:21;11.80;99.90
10512;DHT22;5304;48.604;2.096;2024-02-28T09:48:07;12.20;99.90
10512;DHT22;5304;48.604;2.096;2024-02-28T09:50:53;12.60;99.90
10512;DHT22;5304;48.604;2.096;2024-02-28T09:53:37;12.50;99.90
10512;DHT22;5304;48.604;2.096;2024-02-28T09:56:23;12.00;99.90
10512;DHT22;5304;48.604;2.096;2024-02-28T09:59:07;12.00;99.90
10512;DHT22;5304;48.604;2.096;2024-02-28T10:01:59;11.70;99.90
10512;DHT22;5304;48.604;2.096;2024-02-28T10:04:44;11.30;99.90
10512;DHT22;5304;48.604;2.096;2024-02-28T10:07:28;11.10;99.90
10512;DHT22;5304;48.604;2.096;2024-02-28T10:10:16;11.00;99.90
10512;DHT22;5304;48.604;2.096;2024-02-28T10:13:01;10.80;99.90
10512;DHT22;5304;48.604;2.096;2024-02-28T10:15:45;10.70;99.90
10512;DHT22;5304;48.604;2.096;2024-02-28T10:18:31;10.60;99.90
10512;DHT22;5304;48.604;2.096;2024-02-28T10:21:15;10.50;99.90
10512;DHT22;5304;48.604;2.096;2024-02-28T10:24:00;10.10;99.90
10512;DHT22;5304;48.604;2.096;2024-02-28T10:26:45;10.20;99.90
10512;DHT22;5304;48.604;2.096;2024-02-28T10:29:32;10.10;99.90
10512;DHT22;5304;48.604;2.096;2024-02-28T10:32:19;10.10;99.90
10512;DHT22;5304;48.604;2.096;2024-02-28T10:35:04;10.30;99.90
10512;DHT22;5304;48.604;2.096;2024-02-28T10:37:54;10.40;99.90
10512;DHT22;5304;48.604;2.096;2024-02-28T10:40:40;10.60;99.90
10512;DHT22;5304;48.604;2.096;2024-02-28T10:43:27;10.80;99.90
10512;DHT22;5304;48.604;2.096;2024-02-28T10:46:14;10.90;99.90
10512;DHT22;5304;48.604;2.096;2024-02-28T10:49:00;10.90;99.90
10512;DHT22;5304;48.604;2.096;2024-02-28T10:51:47;10.90;99.90
10512;DHT22;5304;48.604;2.096;2024-02-28T10:54:34;11.10;99.90
10512;DHT22;5304;48.604;2.096;2024-02-28T10:57:21;10.90;99.90
10512;DHT22;5304;48.604;2.096;2024-02-28T11:00:06;10.80;99.90
10512;DHT22;5304;48.604;2.096;2024-02-28T11:02:50;10.70;99.90
10512;DHT22;5304;48.604;2.096;2024-02-28T11:05:42;10.60;99.90
10512;DHT22;5304;48.604;2.096;2024-02-28T11:08:29;10.40;99.90
10512;DHT22;5304;48.604;2.096;2024-02-28T11:11:14;10.30;99.90
10512;DHT22;5304;48.604;2.096;2024-02-28T11:13:58;10.00;99.90
10512;DHT22;5304;48.604;2.096;2024-02-28T11:16:45;10.10;99.90
10512;DHT22;5304;48.604;2.096;2024-02-28T11:19:31;10.10;99.90
10512;DHT22;5304;48.604;2.096;2024-02-28T11:22:18;10.10;99.90
10512;DHT22;5304;48.604;2.096;2024-02-28T11:25:02;10.00;99.90
10512;DHT22;5304;48.604;2.096;2024-02-28T11:27:49;9.90;99.90
10512;DHT22;5304;48.604;2.096;2024-02-28T11:30:33;9.80;99.90
10512;DHT22;5304;48.604;2.096;2024-02-28T11:33:18;9.80;99.90
10512;DHT22;5304;48.604;2.096;2024-02-28T11:36:02;9.90;99.90
10512;DHT22;5304;48.604;2.096;2024-02-28T11:38:47;9.90;99.90
10512;DHT22;5304;48.604;2.096;2024-02-28T11:41:32;9.70;99.90
10512;DHT22;5304;48.604;2.096;2024-02-28T11:44:17;9.40;99.90
10512;DHT22;5304;48.604;2.096;2024-02-28T11:47:02;9.40;99.90
10512;DHT22;5304;48.604;2.096;2024-02-28T11:49:46;9.40;99.90
10512;DHT22;5304;48.604;2.096;2024-02-28T11:52:30;9.50;99.90
10512;DHT22;5304;48.604;2.096;2024-02-28T11:55:15;9.70;99.90
10512;DHT22;5304;48.604;2.096;2024-02-28T11:57:59;9.80;99.90
10512;DHT22;5304;48.604;2.096;2024-02-28T12:00:50;9.80;99.90
10512;DHT22;5304;48.604;2.096;2024-02-28T12:03:34;9.80;99.90
10512;DHT22;5304;48.604;2.096;2024-02-28T12:06:19;9.80;99.90
10512;DHT22;5304;48.604;2.096;2024-02-28T12:09:05;9.70;99.90
10512;DHT22;5304;48.604;2.096;2024-02-28T12:11:51;9.60;99.90
10512;DHT22;5304;48.604;2.096;2024-02-28T12:14:38;9.60;99.90
10512;DHT22;5304;48.604;2.096;2024-02-28T12:17:25;9.50;99.90
10512;DHT22;5304;48.604;2.096;2024-02-28T12:20:11;9.50;99.90
10512;DHT22;5304;48.604;2.096;2024-02-28T12:22:56;9.50;99.90
10512;DHT22;5304;48.604;2.096;2024-02-28T12:25:40;9.50;99.90
10512;DHT22;5304;48.604;2.096;2024-02-28T12:28:24;9.40;99.90
10512;DHT22;5304;48.604;2.096;2024-02-28T12:31:08;9.50;99.90
10512;DHT22;5304;48.604;2.096;2024-02-28T12:33:55;9.50;99.90
10512;DHT22;5304;48.604;2.096;2024-02-28T12:36:39;9.70;99.90
10512;DHT22;5304;48.604;2.096;2024-02-28T12:39:24;9.90;99.90
10512;DHT22;5304;48.604;2.096;2024-02-28T12:42:10;10.30;99.90
10512;DHT22;5304;48.604;2.096;2024-02-28T12:44:54;10.60;99.90
10512;DHT22;5304;48.604;2.096;2024-02-28T12:47:39;10.70;99.90
10512;DHT22;5304;48.604;2.096;2024-02-28T12:50:23;10.60;99.90
10512;DHT22;5304;48.604;2.096;2024-02-28T12:53:08;10.60;99.90
10512;DHT22;5304;48.604;2.096;2024-02-28T12:55:52;10.80;99.90
10512;DHT22;5304;48.604;2.096;2024-02-28T12:58:37;10.80;99.90
10512;DHT22;5304;48.604;2.096;2024-02-28T13:01:21;10.80;99.90
10512;DHT22;5304;48.604;2.096;2024-02-28T13:04:06;11.00;99.90
10512;DHT22;5304;48.604;2.096;2024-02-28T13:06:51;11.20;99.90
10512;DHT22;5304;48.604;2.096;2024-02-28T13:09:37;11.10;99.90
10512;DHT22;5304;48.604;2.096;2024-02-28T13:12:22;11.00;99.90
10512;DHT22;5304;48.604;2.096;2024-02-28T13:15:07;11.10;99.90
10512;DHT22;5304;48.604;2.096;2024-02-28T13:17:51;11.20;99.90
10512;DHT22;5304;48.604;2.096;2024-02-28T13:20:36;10.70;99.90
10512;DHT22;5304;48.604;2.096;2024-02-28T13:23:21;10.80;99.90
10512;DHT22;5304;48.604;2.096;2024-02-28T13:26:06;10.90;99.90
10512;DHT22;5304;48.604;2.096;2024-02-28T13:28:51;10.80;99.90
10512;DHT22;5304;48.604;2.096;2024-02-28T13:31:35;10.60;99.90
10512;DHT22;5304;48.604;2.096;2024-02-28T13:34:19;10.70;99.90
10512;DHT22;5304;48.604;2.096;2024-02-28T13:37:03;10.60;99.90
10512;DHT22;5304;48.604;2.096;2024-02-28T13:39:48;10.60;99.90
10512;DHT22;5304;48.604;2.096;2024-02-28T13:42:35;10.60;99.90
10512;DHT22;5304;48.604;2.096;2024-02-28T13:45:19;10.50;99.90
10512;DHT22;5304;48.604;2.096;2024-02-28T13:48:04;10.50;99.90
10512;DHT22;5304;48.604;2.096;2024-02-28T13:50:49;10.50;99.90
10512;DHT22;5304;48.604;2.096;2024-02-28T13:53:33;10.50;99.90
10512;DHT22;5304;48.604;2.096;2024-02-28T13:56:17;10.40;99.90
10512;DHT22;5304;48.604;2.096;2024-02-28T13:59:01;10.40;99.90
10512;DHT22;5304;48.604;2.096;2024-02-28T14:01:46;10.40;99.90
10512;DHT22;5304;48.604;2.096;2024-02-28T14:04:30;10.50;99.90
10512;DHT22;5304;48.604;2.096;2024-02-28T14:07:16;10.50;99.90
10512;DHT22;5304;48.604;2.096;2024-02-28T14:10:00;10.60;99.90
10512;DHT22;5304;48.604;2.096;2024-02-28T14:12:44;10.60;99.90
10512;DHT22;5304;48.604;2.096;2024-02-28T14:15:28;10.50;99.90
10512;DHT22;5304;48.604;2.096;2024-02-28T14:18:13;10.50;99.90
10512;DHT22;5304;48.604;2.096;2024-02-28T14:20:57;10.40;99.90
10512;DHT22;5304;48.604;2.096;2024-02-28T14:23:41;10.30;99.90
10512;DHT22;5304;48.604;2.096;2024-02-28T14:26:26;10.30;99.90
10512;DHT22;5304;48.604;2.096;2024-02-28T14:29:11;10.40;99.90
10512;DHT22;5304;48.604;2.096;2024-02-28T14:31:55;10.30;99.90
10512;DHT22;5304;48.604;2.096;2024-02-28T14:34:39;10.30;99.90
10512;DHT22;5304;48.604;2.096;2024-02-28T14:37:26;10.20;99.90
10512;DHT22;5304;48.604;2.096;2024-02-28T14:40:11;10.20;99.90
10512;DHT22;5304;48.604;2.096;2024-02-28T14:42:55;10.30;99.90
10512;DHT22;5304;48.604;2.096;2024-02-28T14:45:39;10.30;99.90
10512;DHT22;5304;48.604;2.096;2024-02-28T14:48:23;10.20;99.90
10512;DHT22;5304;48.604;2.096;2024-02-28T14:51:08;10.30;99.90
10512;DHT22;5304;48.604;2.096;2024-02-28T14:53:54;10.20;99.90
10512;DHT22;5304;48.604;2.096;2024-02-28T14:56:38;10.20;99.90
10512;DHT22;5304;48.604;2.096;2024-02-28T14:59:23;10.20;99.90
10512;DHT22;5304;48.604;2.096;2024-02-28T15:02:09;10.20;99.90
10512;DHT22;5304;48.604;2.096;2024-02-28T15:04:55;10.10;99.90
10512;DHT22;5304;48.604;2.096;2024-02-28T15:07:40;10.10;99.90
10512;DHT22;5304;48.604;2.096;2024-02-28T15:10:25;10.00;99.90
10512;DHT22;5304;48.604;2.096;2024-02-28T15:13:09;10.00;99.90
10512;DHT22;5304;48.604;2.096;2024-02-28T15:15:53;10.00;99.90
10512;DHT22;5304;48.604;2.096;2024-02-28T15:18:37;10.00;99.90
10512;DHT22;5304;48.604;2.096;2024-02-28T15:21:21;9.90;99.90
10512;DHT22;5304;48.604;2.096;2024-02-28T15:24:07;9.90;99.90
10512;DHT22;5304;48.604;2.096;2024-02-28T15:26:51;9.90;99.90
10512;DHT22;5304;48.604;2.096;2024-02-28T15:29:36;10.20;99.90
10512;DHT22;5304;48.604;2.096;2024-02-28T15:32:20;10.10;99.90
10512;DHT22;5304;48.604;2.096;2024-02-28T15:35:08;10.10;99.90
10512;DHT22;5304;48.604;2.096;2024-02-28T15:37:52;10.10;99.90
10512;DHT22;5304;48.604;2.096;2024-02-28T15:40:37;10.00;99.90
10512;DHT22;5304;48.604;2.096;2024-02-28T15:43:21;10.10;99.90
10512;DHT22;5304;48.604;2.096;2024-02-28T15:46:06;10.10;99.90
10512;DHT22;5304;48.604;2.096;2024-02-28T15:48:50;10.10;99.90
10512;DHT22;5304;48.604;2.096;2024-02-28T15:51:34;10.10;99.90
10512;DHT22;5304;48.604;2.096;2024-02-28T15:54:19;10.00;99.90
10512;DHT22;5304;48.604;2.096;2024-02-28T15:57:04;10.00;99.90
10512;DHT22;5304;48.604;2.096;2024-02-28T15:59:48;10.00;99.90
10512;DHT22;5304;48.604;2.096;2024-02-28T16:02:32;9.80;99.90
10512;DHT22;5304;48.604;2.096;2024-02-28T16:05:17;9.80;99.90
10512;DHT22;5304;48.604;2.096;2024-02-28T16:08:01;9.80;99.90
10512;DHT22;5304;48.604;2.096;2024-02-28T16:10:45;9.90;99.90
10512;DHT22;5304;48.604;2.096;2024-02-28T16:13:29;9.90;99.90
10512;DHT22;5304;48.604;2.096;2024-02-28T16:16:14;9.90;99.90
10512;DHT22;5304;48.604;2.096;2024-02-28T16:18:58;9.90;99.90
10512;DHT22;5304;48.604;2.096;2024-02-28T16:21:43;9.90;99.90
10512;DHT22;5304;48.604;2.096;2024-02-28T16:24:30;10.00;99.90
10512;DHT22;5304;48.604;2.096;2024-02-28T16:27:14;9.80;99.90
10512;DHT22;5304;48.604;2.096;2024-02-28T16:29:59;9.80;99.90
10512;DHT22;5304;48.604;2.096;2024-02-28T16:32:43;9.80;99.90
10512;DHT22;5304;48.604;2.096;2024-02-28T16:35:28;9.80;99.90
10512;DHT22;5304;48.604;2.096;2024-02-28T16:38:12;9.80;99.90
10512;DHT22;5304;48.604;2.096;2024-02-28T16:40:57;9.80;99.90
10512;DHT22;5304;48.604;2.096;2024-02-28T16:43:41;9.80;99.90
10512;DHT22;5304;48.604;2.096;2024-02-28T16:46:29;9.80;99.90
10512;DHT22;5304;48.604;2.096;2024-02-28T16:49:14;9.80;99.90
10512;DHT22;5304;48.604;2.096;2024-02-28T16:52:00;9.70;99.90
10512;DHT22;5304;48.604;2.096;2024-02-28T16:54:44;9.80;99.90
10512;DHT22;5304;48.604;2.096;2024-02-28T16:57:30;9.80;99.90
10512;DHT22;5304;48.604;2.096;2024-02-28T17:00:15;9.80;99.90
10512;DHT22;5304;48.604;2.096;2024-02-28T17:03:02;9.70;99.90
10512;DHT22;5304;48.604;2.096;2024-02-28T17:05:47;9.70;99.90
10512;DHT22;5304;48.604;2.096;2024-02-28T17:08:32;9.70;99.90
10512;DHT22;5304;48.604;2.096;2024-02-28T17:11:19;9.80;99.90
10512;DHT22;5304;48.604;2.096;2024-02-28T17:14:05;9.80;99.90
10512;DHT22;5304;48.604;2.096;2024-02-28T17:16:50;9.80;99.90
10512;DHT22;5304;48.604;2.096;2024-02-28T17:19:34;9.70;99.90
10512;DHT22;5304;48.604;2.096;2024-02-28T17:22:18;9.70;99.90
10512;DHT22;5304;48.604;2.096;2024-02-28T17:25:04;9.70;99.90
10512;DHT22;5304;48.604;2.096;2024-02-28T17:27:48;9.70;99.90
10512;DHT22;5304;48.604;2.096;2024-02-28T17:30:33;9.70;99.90
10512;DHT22;5304;48.604;2.096;2024-02-28T17:33:17;9.50;99.90
10512;DHT22;5304;48.604;2.096;2024-02-28T17:36:02;9.50;99.90
10512;DHT22;5304;48.604;2.096;2024-02-28T17:38:46;9.50;99.90
10512;DHT22;5304;48.604;2.096;2024-02-28T17:41:31;9.50;99.90
10512;DHT22;5304;48.604;2.096;2024-02-28T17:44:15;9.50;99.90
10512;DHT22;5304;48.604;2.096;2024-02-28T17:46:59;9.40;99.90
10512;DHT22;5304;48.604;2.096;2024-02-28T17:49:44;9.30;99.90
10512;DHT22;5304;48.604;2.096;2024-02-28T17:52:29;9.40;99.90
10512;DHT22;5304;48.604;2.096;2024-02-28T17:55:13;9.30;99.90
10512;DHT22;5304;48.604;2.096;2024-02-28T17:57:58;9.40;99.90
10512;DHT22;5304;48.604;2.096;2024-02-28T18:00:43;9.30;99.90
10512;DHT22;5304;48.604;2.096;2024-02-28T18:03:31;9.30;99.90
10512;DHT22;5304;48.604;2.096;2024-02-28T18:06:16;9.20;99.90
10512;DHT22;5304;48.604;2.096;2024-02-28T18:09:02;9.00;99.90
10512;DHT22;5304;48.604;2.096;2024-02-28T18:11:46;9.00;99.90
10512;DHT22;5304;48.604;2.096;2024-02-28T18:14:30;8.90;99.90
10512;DHT22;5304;48.604;2.096;2024-02-28T18:17:15;8.80;99.90
10512;DHT22;5304;48.604;2.096;2024-02-28T18:19:59;8.90;99.90
10512;DHT22;5304;48.604;2.096;2024-02-28T18:22:43;8.70;99.90
10512;DHT22;5304;48.604;2.096;2024-02-28T18:25:27;8.60;99.90
10512;DHT22;5304;48.604;2.096;2024-02-28T18:28:12;8.60;99.90
10512;DHT22;5304;48.604;2.096;2024-02-28T18:30:56;8.50;99.90
10512;DHT22;5304;48.604;2.096;2024-02-28T18:33:40;8.40;99.90
10512;DHT22;5304;48.604;2.096;2024-02-28T18:36:25;8.40;99.90
10512;DHT22;5304;48.604;2.096;2024-02-28T18:39:10;8.30;99.90
10512;DHT22;5304;48.604;2.096;2024-02-28T18:41:55;8.20;99.90
10512;DHT22;5304;48.604;2.096;2024-02-28T18:44:42;8.20;99.90
10512;DHT22;5304;48.604;2.096;2024-02-28T18:47:28;8.30;99.90
10512;DHT22;5304;48.604;2.096;2024-02-28T18:50:13;8.30;99.90
10512;DHT22;5304;48.604;2.096;2024-02-28T18:52:57;8.30;99.90
10512;DHT22;5304;48.604;2.096;2024-02-28T18:55:41;8.30;99.90
10512;DHT22;5304;48.604;2.096;2024-02-28T18:58:26;8.20;99.90
10512;DHT22;5304;48.604;2.096;2024-02-28T19:01:10;8.20;99.90
10512;DHT22;5304;48.604;2.096;2024-02-28T19:03:55;8.10;99.90
10512;DHT22;5304;48.604;2.096;2024-02-28T19:06:43;8.10;99.90
10512;DHT22;5304;48.604;2.096;2024-02-28T19:09:28;8.20;99.90
10512;DHT22;5304;48.604;2.096;2024-02-28T19:12:12;8.10;99.90
10512;DHT22;5304;48.604;2.096;2024-02-28T19:14:57;8.10;99.90
10512;DHT22;5304;48.604;2.096;2024-02-28T19:17:41;8.10;99.90
10512;DHT22;5304;48.604;2.096;2024-02-28T19:20:25;8.10;99.90
10512;DHT22;5304;48.604;2.096;2024-02-28T19:23:09;8.10;99.90
10512;DHT22;5304;48.604;2.096;2024-02-28T19:25:54;8.00;99.90
10512;DHT22;5304;48.604;2.096;2024-02-28T19:28:38;7.90;99.90
10512;DHT22;5304;48.604;2.096;2024-02-28T19:31:25;7.90;99.90
10512;DHT22;5304;48.604;2.096;2024-02-28T19:34:10;7.90;99.90
10512;DHT22;5304;48.604;2.096;2024-02-28T19:36:54;7.80;99.90
10512;DHT22;5304;48.604;2.096;2024-02-28T19:39:38;7.70;99.90
10512;DHT22;5304;48.604;2.096;2024-02-28T19:42:23;7.60;99.90
10512;DHT22;5304;48.604;2.096;2024-02-28T19:45:07;7.50;99.90
10512;DHT22;5304;48.604;2.096;2024-02-28T19:47:52;7.40;99.90
10512;DHT22;5304;48.604;2.096;2024-02-28T19:50:36;7.50;99.90
10512;DHT22;5304;48.604;2.096;2024-02-28T19:53:21;7.40;99.90
10512;DHT22;5304;48.604;2.096;2024-02-28T19:56:06;7.40;99.90
10512;DHT22;5304;48.604;2.096;2024-02-28T19:58:51;7.40;99.90
10512;DHT22;5304;48.604;2.096;2024-02-28T20:01:35;7.30;99.90
10512;DHT22;5304;48.604;2.096;2024-02-28T20:04:20;7.30;99.90
10512;DHT22;5304;48.604;2.096;2024-02-28T20:07:04;7.20;99.90
10512;DHT22;5304;48.604;2.096;2024-02-28T20:09:49;7.10;99.90
10512;DHT22;5304;48.604;2.096;2024-02-28T20:12:33;7.10;99.90
10512;DHT22;5304;48.604;2.096;2024-02-28T20:15:17;7.10;99.90
10512;DHT22;5304;48.604;2.096;2024-02-28T20:18:02;7.10;99.90
10512;DHT22;5304;48.604;2.096;2024-02-28T20:20:49;7.00;99.90
10512;DHT22;5304;48.604;2.096;2024-02-28T20:23:39;7.10;99.90
10512;DHT22;5304;48.604;2.096;2024-02-28T20:26:24;7.10;99.90
10512;DHT22;5304;48.604;2.096;2024-02-28T20:29:09;7.00;99.90
10512;DHT22;5304;48.604;2.096;2024-02-28T20:31:53;7.00;99.90
10512;DHT22;5304;48.604;2.096;2024-02-28T20:34:37;7.20;99.90
10512;DHT22;5304;48.604;2.096;2024-02-28T20:37:21;7.30;99.90
10512;DHT22;5304;48.604;2.096;2024-02-28T20:40:06;7.20;99.90
10512;DHT22;5304;48.604;2.096;2024-02-28T20:42:56;7.20;99.90
10512;DHT22;5304;48.604;2.096;2024-02-28T20:45:40;7.20;99.90
10512;DHT22;5304;48.604;2.096;2024-02-28T20:48:24;7.10;99.90
10512;DHT22;5304;48.604;2.096;2024-02-28T20:51:08;7.10;99.90
10512;DHT22;5304;48.604;2.096;2024-02-28T20:53:52;7.00;99.90
10512;DHT22;5304;48.604;2.096;2024-02-28T20:56:39;7.10;99.90
10512;DHT22;5304;48.604;2.096;2024-02-28T20:59:26;7.10;99.90
10512;DHT22;5304;48.604;2.096;2024-02-28T21:02:11;7.20;99.90
10512;DHT22;5304;48.604;2.096;2024-02-28T21:04:55;7.20;99.90
10512;DHT22;5304;48.604;2.096;2024-02-28T21:07:41;7.30;99.90
10512;DHT22;5304;48.604;2.096;2024-02-28T21:10:25;7.30;99.90
10512;DHT22;5304;48.604;2.096;2024-02-28T21:13:10;7.40;99.90
10512;DHT22;5304;48.604;2.096;2024-02-28T21:15:54;7.50;99.90
10512;DHT22;5304;48.604;2.096;2024-02-28T21:18:38;7.50;99.90
10512;DHT22;5304;48.604;2.096;2024-02-28T21:21:22;7.60;99.90
10512;DHT22;5304;48.604;2.096;2024-02-28T21:24:10;7.50;99.90
10512;DHT22;5304;48.604;2.096;2024-02-28T21:26:55;7.50;99.90
10512;DHT22;5304;48.604;2.096;2024-02-28T21:29:39;7.50;99.90
